sensor_id;sensor_type;location;lat;lon;timestamp;P1;durP1;ratioP1;P2;durP2;ratioP2
68250;SDS011;55066;51.560;4.642;2023-03-14T00:00:28;7.82;;;1.00;;
68250;SDS011;55066;51.560;4.642;2023-03-14T00:02:54;6.70;;;0.93;;
68250;SDS011;55066;51.560;4.642;2023-03-14T00:05:21;8.70;;;1.13;;
68250;SDS011;55066;51.560;4.642;2023-03-14T00:07:47;7.38;;;1.08;;
68250;SDS011;55066;51.560;4.642;2023-03-14T00:10:17;7.00;;;0.95;;
68250;SDS011;55066;51.560;4.642;2023-03-14T00:12:45;5.28;;;1.05;;
68250;SDS011;55066;51.560;4.642;2023-03-14T00:15:12;6.10;;;1.20;;
68250;SDS011;55066;51.560;4.642;2023-03-14T00:17:40;10.68;;;1.17;;
68250;SDS011;55066;51.560;4.642;2023-03-14T00:20:11;7.57;;;1.30;;
68250;SDS011;55066;51.560;4.642;2023-03-14T00:22:38;7.70;;;1.33;;
68250;SDS011;55066;51.560;4.642;2023-03-14T00:25:07;7.90;;;1.25;;
68250;SDS011;55066;51.560;4.642;2023-03-14T00:27:36;8.63;;;1.30;;
68250;SDS011;55066;51.560;4.642;2023-03-14T00:30:04;6.38;;;1.30;;
68250;SDS011;55066;51.560;4.642;2023-03-14T00:32:33;8.63;;;1.17;;
68250;SDS011;55066;51.560;4.642;2023-03-14T00:35:00;9.15;;;1.67;;
68250;SDS011;55066;51.560;4.642;2023-03-14T00:37:26;9.83;;;1.50;;
68250;SDS011;55066;51.560;4.642;2023-03-14T00:39:52;9.52;;;1.90;;
68250;SDS011;55066;51.560;4.642;2023-03-14T00:42:17;8.53;;;1.33;;
68250;SDS011;55066;51.560;4.642;2023-03-14T00:44:43;12.90;;;1.73;;
68250;SDS011;55066;51.560;4.642;2023-03-14T00:47:09;7.30;;;1.40;;
68250;SDS011;55066;51.560;4.642;2023-03-14T00:49:36;9.23;;;1.48;;
68250;SDS011;55066;51.560;4.642;2023-03-14T00:52:02;7.93;;;1.73;;
68250;SDS011;55066;51.560;4.642;2023-03-14T00:54:30;8.23;;;1.63;;
68250;SDS011;55066;51.560;4.642;2023-03-14T00:56:56;6.38;;;1.55;;
68250;SDS011;55066;51.560;4.642;2023-03-14T00:59:23;7.97;;;1.45;;
68250;SDS011;55066;51.560;4.642;2023-03-14T01:01:50;5.28;;;1.25;;
68250;SDS011;55066;51.560;4.642;2023-03-14T01:04:16;7.13;;;1.00;;
68250;SDS011;55066;51.560;4.642;2023-03-14T01:06:44;6.82;;;1.20;;
68250;SDS011;55066;51.560;4.642;2023-03-14T01:09:10;5.35;;;1.00;;
68250;SDS011;55066;51.560;4.642;2023-03-14T01:11:36;7.70;;;1.35;;
68250;SDS011;55066;51.560;4.642;2023-03-14T01:14:02;6.27;;;1.20;;
68250;SDS011;55066;51.560;4.642;2023-03-14T01:16:33;7.18;;;1.23;;
68250;SDS011;55066;51.560;4.642;2023-03-14T01:19:00;4.88;;;1.00;;
68250;SDS011;55066;51.560;4.642;2023-03-14T01:21:28;8.30;;;1.05;;
68250;SDS011;55066;51.560;4.642;2023-03-14T01:23:56;9.75;;;1.20;;
68250;SDS011;55066;51.560;4.642;2023-03-14T01:26:24;9.38;;;1.15;;
68250;SDS011;55066;51.560;4.642;2023-03-14T01:28:54;6.88;;;1.05;;
68250;SDS011;55066;51.560;4.642;2023-03-14T01:31:23;5.68;;;1.02;;
68250;SDS011;55066;51.560;4.642;2023-03-14T01:33:50;5.97;;;1.67;;
68250;SDS011;55066;51.560;4.642;2023-03-14T01:36:18;7.28;;;1.27;;
68250;SDS011;55066;51.560;4.642;2023-03-14T01:38:50;7.93;;;1.42;;
68250;SDS011;55066;51.560;4.642;2023-03-14T01:41:19;6.50;;;1.35;;
68250;SDS011;55066;51.560;4.642;2023-03-14T01:43:47;6.72;;;1.45;;
68250;SDS011;55066;51.560;4.642;2023-03-14T01:46:32;5.50;;;1.20;;
68250;SDS011;55066;51.560;4.642;2023-03-14T01:49:03;6.95;;;1.10;;
68250;SDS011;55066;51.560;4.642;2023-03-14T01:51:54;7.28;;;1.15;;
68250;SDS011;55066;51.560;4.642;2023-03-14T01:54:25;8.70;;;1.30;;
68250;SDS011;55066;51.560;4.642;2023-03-14T01:57:14;9.45;;;1.48;;
68250;SDS011;55066;51.560;4.642;2023-03-14T01:59:47;7.55;;;1.17;;
68250;SDS011;55066;51.560;4.642;2023-03-14T02:02:17;4.85;;;1.17;;
68250;SDS011;55066;51.560;4.642;2023-03-14T02:04:43;9.95;;;1.10;;
68250;SDS011;55066;51.560;4.642;2023-03-14T02:10:07;6.35;;;1.35;;
68250;SDS011;55066;51.560;4.642;2023-03-14T02:12:37;12.13;;;1.30;;
68250;SDS011;55066;51.560;4.642;2023-03-14T02:15:22;6.82;;;1.50;;
68250;SDS011;55066;51.560;4.642;2023-03-14T02:17:56;7.25;;;1.30;;
68250;SDS011;55066;51.560;4.642;2023-03-14T02:23:13;11.27;;;1.38;;
68250;SDS011;55066;51.560;4.642;2023-03-14T02:25:43;6.00;;;1.25;;
68250;SDS011;55066;51.560;4.642;2023-03-14T02:28:11;5.68;;;1.40;;
68250;SDS011;55066;51.560;4.642;2023-03-14T02:30:57;9.32;;;1.40;;
68250;SDS011;55066;51.560;4.642;2023-03-14T02:33:25;13.98;;;1.77;;
68250;SDS011;55066;51.560;4.642;2023-03-14T02:36:01;8.05;;;1.30;;
68250;SDS011;55066;51.560;4.642;2023-03-14T02:38:35;11.82;;;1.45;;
68250;SDS011;55066;51.560;4.642;2023-03-14T02:41:05;9.43;;;1.55;;
68250;SDS011;55066;51.560;4.642;2023-03-14T02:43:35;7.88;;;1.40;;
68250;SDS011;55066;51.560;4.642;2023-03-14T02:46:03;9.23;;;1.30;;
68250;SDS011;55066;51.560;4.642;2023-03-14T02:48:33;10.63;;;1.52;;
68250;SDS011;55066;51.560;4.642;2023-03-14T02:51:29;9.63;;;1.40;;
68250;SDS011;55066;51.560;4.642;2023-03-14T02:53:55;7.57;;;1.40;;
68250;SDS011;55066;51.560;4.642;2023-03-14T02:56:24;10.88;;;2.15;;
68250;SDS011;55066;51.560;4.642;2023-03-14T02:58:50;10.98;;;2.03;;
68250;SDS011;55066;51.560;4.642;2023-03-14T03:01:24;9.15;;;1.52;;
68250;SDS011;55066;51.560;4.642;2023-03-14T03:03:51;7.97;;;1.20;;
68250;SDS011;55066;51.560;4.642;2023-03-14T03:06:18;8.95;;;1.10;;
68250;SDS011;55066;51.560;4.642;2023-03-14T03:08:44;7.85;;;1.42;;
68250;SDS011;55066;51.560;4.642;2023-03-14T03:11:13;10.37;;;1.40;;
68250;SDS011;55066;51.560;4.642;2023-03-14T03:13:38;8.73;;;1.27;;
68250;SDS011;55066;51.560;4.642;2023-03-14T03:16:15;8.05;;;1.15;;
68250;SDS011;55066;51.560;4.642;2023-03-14T03:18:41;9.00;;;1.50;;
68250;SDS011;55066;51.560;4.642;2023-03-14T03:21:08;10.40;;;1.35;;
68250;SDS011;55066;51.560;4.642;2023-03-14T03:23:35;10.48;;;1.20;;
68250;SDS011;55066;51.560;4.642;2023-03-14T03:26:03;7.30;;;1.25;;
68250;SDS011;55066;51.560;4.642;2023-03-14T03:28:28;8.47;;;1.33;;
68250;SDS011;55066;51.560;4.642;2023-03-14T03:30:56;10.23;;;1.45;;
68250;SDS011;55066;51.560;4.642;2023-03-14T03:33:21;7.90;;;1.10;;
68250;SDS011;55066;51.560;4.642;2023-03-14T03:35:50;6.93;;;1.10;;
68250;SDS011;55066;51.560;4.642;2023-03-14T03:38:36;5.60;;;1.02;;
68250;SDS011;55066;51.560;4.642;2023-03-14T03:41:04;3.97;;;0.95;;
68250;SDS011;55066;51.560;4.642;2023-03-14T03:43:34;3.40;;;0.60;;
68250;SDS011;55066;51.560;4.642;2023-03-14T03:46:04;6.75;;;1.00;;
68250;SDS011;55066;51.560;4.642;2023-03-14T03:48:31;8.35;;;1.15;;
68250;SDS011;55066;51.560;4.642;2023-03-14T03:51:00;4.18;;;0.90;;
68250;SDS011;55066;51.560;4.642;2023-03-14T03:53:27;6.43;;;0.90;;
68250;SDS011;55066;51.560;4.642;2023-03-14T03:55:54;9.10;;;1.05;;
68250;SDS011;55066;51.560;4.642;2023-03-14T03:58:21;4.97;;;0.95;;
68250;SDS011;55066;51.560;4.642;2023-03-14T04:00:47;4.55;;;1.02;;
68250;SDS011;55066;51.560;4.642;2023-03-14T04:03:12;6.13;;;0.93;;
68250;SDS011;55066;51.560;4.642;2023-03-14T04:05:38;3.55;;;0.73;;
68250;SDS011;55066;51.560;4.642;2023-03-14T04:08:12;5.03;;;1.20;;
68250;SDS011;55066;51.560;4.642;2023-03-14T04:10:38;3.92;;;1.00;;
68250;SDS011;55066;51.560;4.642;2023-03-14T04:13:08;8.10;;;1.00;;
68250;SDS011;55066;51.560;4.642;2023-03-14T04:15:38;5.30;;;1.25;;
68250;SDS011;55066;51.560;4.642;2023-03-14T04:18:17;6.28;;;1.23;;
68250;SDS011;55066;51.560;4.642;2023-03-14T04:20:43;5.00;;;1.30;;
68250;SDS011;55066;51.560;4.642;2023-03-14T04:23:10;5.93;;;1.25;;
68250;SDS011;55066;51.560;4.642;2023-03-14T04:25:35;8.27;;;2.03;;
68250;SDS011;55066;51.560;4.642;2023-03-14T04:28:03;9.17;;;1.60;;
68250;SDS011;55066;51.560;4.642;2023-03-14T04:30:32;5.10;;;1.85;;
68250;SDS011;55066;51.560;4.642;2023-03-14T04:33:02;9.80;;;2.67;;
68250;SDS011;55066;51.560;4.642;2023-03-14T04:35:31;9.23;;;2.40;;
68250;SDS011;55066;51.560;4.642;2023-03-14T04:38:00;9.38;;;2.35;;
68250;SDS011;55066;51.560;4.642;2023-03-14T04:40:31;9.60;;;2.33;;
68250;SDS011;55066;51.560;4.642;2023-03-14T04:43:01;6.90;;;2.60;;
68250;SDS011;55066;51.560;4.642;2023-03-14T04:45:27;5.47;;;2.28;;
68250;SDS011;55066;51.560;4.642;2023-03-14T04:47:56;11.60;;;2.83;;
68250;SDS011;55066;51.560;4.642;2023-03-14T04:50:21;9.93;;;2.63;;
68250;SDS011;55066;51.560;4.642;2023-03-14T04:52:48;9.35;;;2.90;;
68250;SDS011;55066;51.560;4.642;2023-03-14T04:55:14;7.15;;;2.30;;
68250;SDS011;55066;51.560;4.642;2023-03-14T04:57:41;9.30;;;2.97;;
68250;SDS011;55066;51.560;4.642;2023-03-14T05:00:14;8.83;;;2.77;;
68250;SDS011;55066;51.560;4.642;2023-03-14T05:03:13;9.73;;;3.05;;
68250;SDS011;55066;51.560;4.642;2023-03-14T05:06:09;9.35;;;3.22;;
68250;SDS011;55066;51.560;4.642;2023-03-14T05:08:44;8.55;;;3.03;;
68250;SDS011;55066;51.560;4.642;2023-03-14T05:11:29;7.60;;;2.80;;
68250;SDS011;55066;51.560;4.642;2023-03-14T05:14:06;8.40;;;2.73;;
68250;SDS011;55066;51.560;4.642;2023-03-14T05:16:38;7.93;;;2.40;;
68250;SDS011;55066;51.560;4.642;2023-03-14T05:19:35;6.95;;;2.53;;
68250;SDS011;55066;51.560;4.642;2023-03-14T05:22:23;6.15;;;2.47;;
68250;SDS011;55066;51.560;4.642;2023-03-14T05:25:07;9.45;;;2.88;;
68250;SDS011;55066;51.560;4.642;2023-03-14T05:27:54;9.90;;;3.30;;
68250;SDS011;55066;51.560;4.642;2023-03-14T05:30:39;9.45;;;3.33;;
68250;SDS011;55066;51.560;4.642;2023-03-14T05:33:41;8.27;;;2.80;;
68250;SDS011;55066;51.560;4.642;2023-03-14T05:36:33;10.57;;;2.67;;
68250;SDS011;55066;51.560;4.642;2023-03-14T05:39:00;9.83;;;2.60;;
68250;SDS011;55066;51.560;4.642;2023-03-14T05:41:40;10.18;;;2.95;;
68250;SDS011;55066;51.560;4.642;2023-03-14T05:44:27;10.13;;;3.20;;
68250;SDS011;55066;51.560;4.642;2023-03-14T05:47:09;8.45;;;2.92;;
68250;SDS011;55066;51.560;4.642;2023-03-14T05:49:53;8.20;;;3.35;;
68250;SDS011;55066;51.560;4.642;2023-03-14T05:52:42;10.67;;;3.70;;
68250;SDS011;55066;51.560;4.642;2023-03-14T05:55:29;9.50;;;3.35;;
68250;SDS011;55066;51.560;4.642;2023-03-14T05:58:13;11.45;;;3.58;;
68250;SDS011;55066;51.560;4.642;2023-03-14T06:00:50;14.15;;;3.75;;
68250;SDS011;55066;51.560;4.642;2023-03-14T06:03:29;10.38;;;3.90;;
68250;SDS011;55066;51.560;4.642;2023-03-14T06:05:56;12.27;;;4.17;;
68250;SDS011;55066;51.560;4.642;2023-03-14T06:08:23;12.00;;;4.07;;
68250;SDS011;55066;51.560;4.642;2023-03-14T06:10:50;13.55;;;4.85;;
68250;SDS011;55066;51.560;4.642;2023-03-14T06:13:17;16.48;;;5.47;;
68250;SDS011;55066;51.560;4.642;2023-03-14T06:15:43;13.52;;;5.20;;
68250;SDS011;55066;51.560;4.642;2023-03-14T06:18:10;16.13;;;5.17;;
68250;SDS011;55066;51.560;4.642;2023-03-14T06:20:36;13.45;;;5.57;;
68250;SDS011;55066;51.560;4.642;2023-03-14T06:23:08;14.90;;;5.72;;
68250;SDS011;55066;51.560;4.642;2023-03-14T06:25:35;13.77;;;4.73;;
68250;SDS011;55066;51.560;4.642;2023-03-14T06:28:02;12.25;;;4.78;;
68250;SDS011;55066;51.560;4.642;2023-03-14T06:30:29;6.47;;;2.65;;
68250;SDS011;55066;51.560;4.642;2023-03-14T06:32:54;3.00;;;1.27;;
68250;SDS011;55066;51.560;4.642;2023-03-14T06:35:22;3.13;;;0.70;;
68250;SDS011;55066;51.560;4.642;2023-03-14T06:37:50;4.50;;;1.10;;
68250;SDS011;55066;51.560;4.642;2023-03-14T06:40:16;5.63;;;1.13;;
68250;SDS011;55066;51.560;4.642;2023-03-14T06:42:55;5.10;;;1.00;;
68250;SDS011;55066;51.560;4.642;2023-03-14T06:45:22;2.92;;;0.73;;
68250;SDS011;55066;51.560;4.642;2023-03-14T06:47:48;5.07;;;1.38;;
68250;SDS011;55066;51.560;4.642;2023-03-14T06:50:16;3.63;;;1.17;;
68250;SDS011;55066;51.560;4.642;2023-03-14T06:52:43;5.95;;;1.08;;
68250;SDS011;55066;51.560;4.642;2023-03-14T06:55:15;5.00;;;1.20;;
68250;SDS011;55066;51.560;4.642;2023-03-14T06:57:41;4.45;;;1.40;;
68250;SDS011;55066;51.560;4.642;2023-03-14T07:00:12;4.57;;;1.42;;
68250;SDS011;55066;51.560;4.642;2023-03-14T07:02:40;3.15;;;1.02;;
68250;SDS011;55066;51.560;4.642;2023-03-14T07:05:10;3.58;;;0.73;;
68250;SDS011;55066;51.560;4.642;2023-03-14T07:07:36;4.30;;;1.13;;
68250;SDS011;55066;51.560;4.642;2023-03-14T07:10:01;3.78;;;0.82;;
68250;SDS011;55066;51.560;4.642;2023-03-14T07:12:27;5.20;;;1.00;;
68250;SDS011;55066;51.560;4.642;2023-03-14T07:14:54;4.32;;;0.60;;
68250;SDS011;55066;51.560;4.642;2023-03-14T07:17:20;2.33;;;0.50;;
68250;SDS011;55066;51.560;4.642;2023-03-14T07:19:48;4.85;;;0.90;;
68250;SDS011;55066;51.560;4.642;2023-03-14T07:22:14;4.80;;;1.17;;
68250;SDS011;55066;51.560;4.642;2023-03-14T07:24:39;9.73;;;1.40;;
68250;SDS011;55066;51.560;4.642;2023-03-14T07:27:05;5.22;;;1.00;;
68250;SDS011;55066;51.560;4.642;2023-03-14T07:29:31;15.23;;;1.00;;
68250;SDS011;55066;51.560;4.642;2023-03-14T07:31:57;6.65;;;0.93;;
68250;SDS011;55066;51.560;4.642;2023-03-14T07:34:23;3.72;;;1.10;;
68250;SDS011;55066;51.560;4.642;2023-03-14T07:36:49;9.00;;;1.00;;
68250;SDS011;55066;51.560;4.642;2023-03-14T07:39:15;5.45;;;0.90;;
68250;SDS011;55066;51.560;4.642;2023-03-14T07:41:51;4.97;;;1.15;;
68250;SDS011;55066;51.560;4.642;2023-03-14T07:44:35;4.25;;;0.90;;
68250;SDS011;55066;51.560;4.642;2023-03-14T07:47:00;3.75;;;0.82;;
68250;SDS011;55066;51.560;4.642;2023-03-14T07:49:26;2.27;;;0.73;;
68250;SDS011;55066;51.560;4.642;2023-03-14T07:51:52;18.52;;;1.92;;
68250;SDS011;55066;51.560;4.642;2023-03-14T07:54:19;15.55;;;1.70;;
68250;SDS011;55066;51.560;4.642;2023-03-14T07:56:45;10.02;;;1.70;;
68250;SDS011;55066;51.560;4.642;2023-03-14T07:59:10;12.27;;;1.93;;
68250;SDS011;55066;51.560;4.642;2023-03-14T08:01:37;9.18;;;1.65;;
68250;SDS011;55066;51.560;4.642;2023-03-14T08:04:04;5.32;;;1.00;;
68250;SDS011;55066;51.560;4.642;2023-03-14T08:06:29;2.80;;;0.73;;
68250;SDS011;55066;51.560;4.642;2023-03-14T08:08:55;7.87;;;1.17;;
68250;SDS011;55066;51.560;4.642;2023-03-14T08:11:21;6.25;;;1.30;;
68250;SDS011;55066;51.560;4.642;2023-03-14T08:13:48;5.88;;;0.93;;
68250;SDS011;55066;51.560;4.642;2023-03-14T08:16:18;2.55;;;0.63;;
68250;SDS011;55066;51.560;4.642;2023-03-14T08:18:44;4.20;;;0.80;;
68250;SDS011;55066;51.560;4.642;2023-03-14T08:21:10;5.13;;;1.02;;
68250;SDS011;55066;51.560;4.642;2023-03-14T08:23:37;4.95;;;0.90;;
68250;SDS011;55066;51.560;4.642;2023-03-14T08:26:03;6.37;;;0.97;;
68250;SDS011;55066;51.560;4.642;2023-03-14T08:28:28;9.88;;;0.80;;
68250;SDS011;55066;51.560;4.642;2023-03-14T08:30:57;3.90;;;0.60;;
68250;SDS011;55066;51.560;4.642;2023-03-14T08:33:23;9.23;;;0.95;;
68250;SDS011;55066;51.560;4.642;2023-03-14T08:35:53;4.88;;;0.80;;
68250;SDS011;55066;51.560;4.642;2023-03-14T08:38:23;4.68;;;0.73;;
68250;SDS011;55066;51.560;4.642;2023-03-14T08:40:54;5.13;;;0.90;;
68250;SDS011;55066;51.560;4.642;2023-03-14T08:43:25;6.93;;;1.10;;
68250;SDS011;55066;51.560;4.642;2023-03-14T08:45:58;5.35;;;0.95;;
68250;SDS011;55066;51.560;4.642;2023-03-14T08:48:25;10.85;;;0.80;;
68250;SDS011;55066;51.560;4.642;2023-03-14T08:50:56;4.30;;;0.90;;
68250;SDS011;55066;51.560;4.642;2023-03-14T08:53:22;12.80;;;1.13;;
68250;SDS011;55066;51.560;4.642;2023-03-14T08:55:53;7.57;;;0.95;;
68250;SDS011;55066;51.560;4.642;2023-03-14T08:58:22;5.05;;;0.73;;
68250;SDS011;55066;51.560;4.642;2023-03-14T09:00:48;6.70;;;1.58;;
68250;SDS011;55066;51.560;4.642;2023-03-14T09:03:17;3.88;;;0.80;;
68250;SDS011;55066;51.560;4.642;2023-03-14T09:05:46;7.72;;;1.02;;
68250;SDS011;55066;51.560;4.642;2023-03-14T09:08:11;5.63;;;1.23;;
68250;SDS011;55066;51.560;4.642;2023-03-14T09:10:37;4.80;;;0.93;;
68250;SDS011;55066;51.560;4.642;2023-03-14T09:13:03;4.75;;;0.60;;
68250;SDS011;55066;51.560;4.642;2023-03-14T09:15:28;4.70;;;0.60;;
68250;SDS011;55066;51.560;4.642;2023-03-14T09:17:54;2.07;;;0.40;;
68250;SDS011;55066;51.560;4.642;2023-03-14T09:20:21;3.75;;;0.65;;
68250;SDS011;55066;51.560;4.642;2023-03-14T09:22:47;6.25;;;0.70;;
68250;SDS011;55066;51.560;4.642;2023-03-14T09:25:13;2.85;;;0.65;;
68250;SDS011;55066;51.560;4.642;2023-03-14T09:27:47;4.50;;;0.73;;
68250;SDS011;55066;51.560;4.642;2023-03-14T09:30:13;4.20;;;0.90;;
68250;SDS011;55066;51.560;4.642;2023-03-14T09:32:40;4.05;;;0.98;;
68250;SDS011;55066;51.560;4.642;2023-03-14T09:35:06;7.33;;;1.10;;
68250;SDS011;55066;51.560;4.642;2023-03-14T09:37:33;3.60;;;0.95;;
68250;SDS011;55066;51.560;4.642;2023-03-14T09:39:59;1.97;;;0.73;;
68250;SDS011;55066;51.560;4.642;2023-03-14T09:42:25;2.67;;;0.80;;
68250;SDS011;55066;51.560;4.642;2023-03-14T09:44:57;5.10;;;1.10;;
68250;SDS011;55066;51.560;4.642;2023-03-14T09:47:27;4.72;;;1.23;;
68250;SDS011;55066;51.560;4.642;2023-03-14T09:49:53;3.75;;;0.90;;
68250;SDS011;55066;51.560;4.642;2023-03-14T09:52:21;3.13;;;0.80;;
68250;SDS011;55066;51.560;4.642;2023-03-14T09:54:50;3.72;;;1.00;;
68250;SDS011;55066;51.560;4.642;2023-03-14T09:57:19;6.07;;;0.80;;
68250;SDS011;55066;51.560;4.642;2023-03-14T09:59:49;8.93;;;1.00;;
68250;SDS011;55066;51.560;4.642;2023-03-14T10:02:28;8.57;;;1.10;;
68250;SDS011;55066;51.560;4.642;2023-03-14T10:04:58;6.25;;;1.35;;
68250;SDS011;55066;51.560;4.642;2023-03-14T10:07:29;4.35;;;1.23;;
68250;SDS011;55066;51.560;4.642;2023-03-14T10:09:56;5.00;;;1.10;;
68250;SDS011;55066;51.560;4.642;2023-03-14T10:12:30;8.93;;;1.40;;
68250;SDS011;55066;51.560;4.642;2023-03-14T10:15:24;5.82;;;0.90;;
68250;SDS011;55066;51.560;4.642;2023-03-14T10:17:50;4.35;;;1.10;;
68250;SDS011;55066;51.560;4.642;2023-03-14T10:20:30;8.23;;;1.77;;
68250;SDS011;55066;51.560;4.642;2023-03-14T10:23:04;5.00;;;1.08;;
68250;SDS011;55066;51.560;4.642;2023-03-14T10:25:36;9.05;;;1.40;;
68250;SDS011;55066;51.560;4.642;2023-03-14T10:28:04;8.10;;;1.33;;
68250;SDS011;55066;51.560;4.642;2023-03-14T10:30:34;11.60;;;1.20;;
68250;SDS011;55066;51.560;4.642;2023-03-14T10:33:10;3.17;;;0.90;;
68250;SDS011;55066;51.560;4.642;2023-03-14T10:35:53;10.68;;;1.20;;
68250;SDS011;55066;51.560;4.642;2023-03-14T10:38:20;5.22;;;0.90;;
68250;SDS011;55066;51.560;4.642;2023-03-14T10:40:50;10.18;;;1.67;;
68250;SDS011;55066;51.560;4.642;2023-03-14T10:43:38;5.57;;;0.77;;
68250;SDS011;55066;51.560;4.642;2023-03-14T10:46:37;8.88;;;1.60;;
68250;SDS011;55066;51.560;4.642;2023-03-14T10:49:32;7.72;;;1.10;;
68250;SDS011;55066;51.560;4.642;2023-03-14T10:54:33;9.07;;;1.10;;
68250;SDS011;55066;51.560;4.642;2023-03-14T10:57:00;11.75;;;1.35;;
68250;SDS011;55066;51.560;4.642;2023-03-14T10:59:50;10.52;;;1.60;;
68250;SDS011;55066;51.560;4.642;2023-03-14T11:02:22;15.93;;;1.67;;
68250;SDS011;55066;51.560;4.642;2023-03-14T11:05:21;8.18;;;1.27;;
68250;SDS011;55066;51.560;4.642;2023-03-14T11:07:56;10.57;;;1.35;;
68250;SDS011;55066;51.560;4.642;2023-03-14T11:10:31;13.60;;;1.48;;
68250;SDS011;55066;51.560;4.642;2023-03-14T11:13:21;14.20;;;1.63;;
68250;SDS011;55066;51.560;4.642;2023-03-14T11:21:08;11.38;;;1.42;;
68250;SDS011;55066;51.560;4.642;2023-03-14T11:24:17;12.02;;;1.77;;
68250;SDS011;55066;51.560;4.642;2023-03-14T11:29:39;13.63;;;2.10;;
68250;SDS011;55066;51.560;4.642;2023-03-14T11:32:12;14.93;;;1.38;;
68250;SDS011;55066;51.560;4.642;2023-03-14T11:34:53;7.05;;;1.27;;
68250;SDS011;55066;51.560;4.642;2023-03-14T11:37:32;14.88;;;1.73;;
68250;SDS011;55066;51.560;4.642;2023-03-14T11:42:30;17.70;;;1.73;;
68250;SDS011;55066;51.560;4.642;2023-03-14T11:44:57;18.88;;;1.85;;
68250;SDS011;55066;51.560;4.642;2023-03-14T11:47:26;17.08;;;2.05;;
68250;SDS011;55066;51.560;4.642;2023-03-14T11:55:35;18.03;;;2.17;;
68250;SDS011;55066;51.560;4.642;2023-03-14T12:00:55;14.10;;;1.90;;
68250;SDS011;55066;51.560;4.642;2023-03-14T12:03:32;8.95;;;1.60;;
68250;SDS011;55066;51.560;4.642;2023-03-14T12:06:25;16.27;;;1.70;;
68250;SDS011;55066;51.560;4.642;2023-03-14T12:09:04;12.87;;;1.70;;
68250;SDS011;55066;51.560;4.642;2023-03-14T12:17:06;13.18;;;1.75;;
68250;SDS011;55066;51.560;4.642;2023-03-14T12:19:43;10.85;;;1.35;;
68250;SDS011;55066;51.560;4.642;2023-03-14T12:25:13;12.63;;;1.52;;
68250;SDS011;55066;51.560;4.642;2023-03-14T12:30:30;7.13;;;1.50;;
68250;SDS011;55066;51.560;4.642;2023-03-14T12:35:48;5.65;;;0.90;;
68250;SDS011;55066;51.560;4.642;2023-03-14T12:40:54;9.23;;;1.15;;
68250;SDS011;55066;51.560;4.642;2023-03-14T12:43:43;8.00;;;0.90;;
68250;SDS011;55066;51.560;4.642;2023-03-14T12:48:38;5.65;;;1.02;;
68250;SDS011;55066;51.560;4.642;2023-03-14T12:51:16;12.30;;;1.67;;
68250;SDS011;55066;51.560;4.642;2023-03-14T12:56:40;7.67;;;1.07;;
68250;SDS011;55066;51.560;4.642;2023-03-14T13:01:37;7.70;;;1.40;;
68250;SDS011;55066;51.560;4.642;2023-03-14T13:04:13;14.80;;;1.10;;
68250;SDS011;55066;51.560;4.642;2023-03-14T13:06:53;9.87;;;1.37;;
68250;SDS011;55066;51.560;4.642;2023-03-14T13:12:03;7.20;;;1.20;;
68250;SDS011;55066;51.560;4.642;2023-03-14T13:14:35;7.85;;;1.17;;
68250;SDS011;55066;51.560;4.642;2023-03-14T13:17:10;6.43;;;0.77;;
68250;SDS011;55066;51.560;4.642;2023-03-14T13:19:40;6.97;;;0.98;;
68250;SDS011;55066;51.560;4.642;2023-03-14T13:22:16;5.43;;;1.10;;
68250;SDS011;55066;51.560;4.642;2023-03-14T13:24:48;6.27;;;1.10;;
68250;SDS011;55066;51.560;4.642;2023-03-14T13:27:16;4.43;;;0.90;;
68250;SDS011;55066;51.560;4.642;2023-03-14T13:29:49;4.67;;;0.70;;
68250;SDS011;55066;51.560;4.642;2023-03-14T13:32:22;4.72;;;1.05;;
68250;SDS011;55066;51.560;4.642;2023-03-14T13:34:57;9.27;;;0.90;;
68250;SDS011;55066;51.560;4.642;2023-03-14T13:37:24;8.75;;;1.20;;
68250;SDS011;55066;51.560;4.642;2023-03-14T13:39:51;12.07;;;1.23;;
68250;SDS011;55066;51.560;4.642;2023-03-14T13:42:27;10.73;;;0.93;;
68250;SDS011;55066;51.560;4.642;2023-03-14T13:44:56;5.22;;;0.70;;
68250;SDS011;55066;51.560;4.642;2023-03-14T13:47:23;5.55;;;1.20;;
68250;SDS011;55066;51.560;4.642;2023-03-14T13:49:51;7.88;;;0.88;;
68250;SDS011;55066;51.560;4.642;2023-03-14T13:52:34;7.03;;;0.90;;
68250;SDS011;55066;51.560;4.642;2023-03-14T13:55:03;6.90;;;0.90;;
68250;SDS011;55066;51.560;4.642;2023-03-14T13:57:43;7.28;;;1.05;;
68250;SDS011;55066;51.560;4.642;2023-03-14T14:00:22;11.48;;;1.08;;
68250;SDS011;55066;51.560;4.642;2023-03-14T14:02:55;10.93;;;1.38;;
68250;SDS011;55066;51.560;4.642;2023-03-14T14:05:28;3.67;;;0.70;;
68250;SDS011;55066;51.560;4.642;2023-03-14T14:07:56;8.30;;;1.10;;
68250;SDS011;55066;51.560;4.642;2023-03-14T14:10:22;4.20;;;0.60;;
68250;SDS011;55066;51.560;4.642;2023-03-14T14:12:50;6.40;;;0.95;;
68250;SDS011;55066;51.560;4.642;2023-03-14T14:15:23;7.38;;;1.45;;
68250;SDS011;55066;51.560;4.642;2023-03-14T14:17:52;5.22;;;1.15;;
68250;SDS011;55066;51.560;4.642;2023-03-14T14:23:11;3.90;;;0.90;;
68250;SDS011;55066;51.560;4.642;2023-03-14T14:25:42;4.85;;;0.60;;
68250;SDS011;55066;51.560;4.642;2023-03-14T14:28:26;6.93;;;0.90;;
68250;SDS011;55066;51.560;4.642;2023-03-14T14:31:02;6.43;;;1.08;;
68250;SDS011;55066;51.560;4.642;2023-03-14T14:33:37;8.77;;;1.00;;
68250;SDS011;55066;51.560;4.642;2023-03-14T14:36:24;7.15;;;0.90;;
68250;SDS011;55066;51.560;4.642;2023-03-14T14:38:52;8.15;;;1.15;;
68250;SDS011;55066;51.560;4.642;2023-03-14T14:41:23;7.85;;;0.88;;
68250;SDS011;55066;51.560;4.642;2023-03-14T14:43:53;8.57;;;0.80;;
68250;SDS011;55066;51.560;4.642;2023-03-14T14:46:20;11.80;;;0.90;;
68250;SDS011;55066;51.560;4.642;2023-03-14T14:48:47;5.32;;;0.93;;
68250;SDS011;55066;51.560;4.642;2023-03-14T14:51:23;7.07;;;0.88;;
68250;SDS011;55066;51.560;4.642;2023-03-14T14:54:08;5.85;;;0.80;;
68250;SDS011;55066;51.560;4.642;2023-03-14T14:56:49;4.72;;;0.75;;
68250;SDS011;55066;51.560;4.642;2023-03-14T14:59:23;8.50;;;1.07;;
68250;SDS011;55066;51.560;4.642;2023-03-14T15:01:56;4.32;;;0.77;;
68250;SDS011;55066;51.560;4.642;2023-03-14T15:04:24;11.20;;;1.13;;
68250;SDS011;55066;51.560;4.642;2023-03-14T15:06:50;12.90;;;1.63;;
68250;SDS011;55066;51.560;4.642;2023-03-14T15:09:19;8.52;;;1.23;;
68250;SDS011;55066;51.560;4.642;2023-03-14T15:11:47;5.83;;;0.90;;
68250;SDS011;55066;51.560;4.642;2023-03-14T15:14:14;7.10;;;0.93;;
68250;SDS011;55066;51.560;4.642;2023-03-14T15:16:40;10.93;;;1.38;;
68250;SDS011;55066;51.560;4.642;2023-03-14T15:19:40;14.10;;;1.20;;
68250;SDS011;55066;51.560;4.642;2023-03-14T15:21:59;6.13;;;0.90;;
68250;SDS011;55066;51.560;4.642;2023-03-14T15:24:24;4.07;;;0.70;;
68250;SDS011;55066;51.560;4.642;2023-03-14T15:26:50;3.25;;;0.80;;
68250;SDS011;55066;51.560;4.642;2023-03-14T15:29:16;5.68;;;0.80;;
68250;SDS011;55066;51.560;4.642;2023-03-14T15:31:43;8.23;;;0.80;;
68250;SDS011;55066;51.560;4.642;2023-03-14T15:34:10;5.57;;;1.10;;
68250;SDS011;55066;51.560;4.642;2023-03-14T15:36:36;7.38;;;1.08;;
68250;SDS011;55066;51.560;4.642;2023-03-14T15:39:04;8.30;;;0.95;;
68250;SDS011;55066;51.560;4.642;2023-03-14T15:41:31;7.70;;;0.90;;
68250;SDS011;55066;51.560;4.642;2023-03-14T15:43:57;6.13;;;1.00;;
68250;SDS011;55066;51.560;4.642;2023-03-14T15:46:23;4.18;;;0.60;;
68250;SDS011;55066;51.560;4.642;2023-03-14T15:48:49;11.00;;;1.00;;
68250;SDS011;55066;51.560;4.642;2023-03-14T15:51:16;7.28;;;0.75;;
68250;SDS011;55066;51.560;4.642;2023-03-14T15:53:42;5.32;;;0.90;;
68250;SDS011;55066;51.560;4.642;2023-03-14T15:56:15;6.72;;;0.90;;
68250;SDS011;55066;51.560;4.642;2023-03-14T15:58:42;9.40;;;1.30;;
68250;SDS011;55066;51.560;4.642;2023-03-14T16:01:12;9.48;;;1.20;;
68250;SDS011;55066;51.560;4.642;2023-03-14T16:03:38;9.23;;;1.38;;
68250;SDS011;55066;51.560;4.642;2023-03-14T16:06:05;13.02;;;1.10;;